Time;durP1;ratioP1;P1;durP2;ratioP2;P2;SDS_P1;SDS_P2;PMS_P1;PMS_P2;Temp;Humidity;BMP_temperature;BMP_pressure;BME280_temperature;BME280_humidity;BME280_pressure;Samples;Min_cycle;Max_cycle;Signal;HPM_P1;HPM_P2
2022/11/08 00:01:54;;;;;;;0.57;0.57;;;12.20;99.90;;;;;;5096602;28;19924;-77
2022/11/08 00:04:20;;;;;;;0.30;0.30;;;12.20;99.90;;;;;;5078638;28;20042;-75
2022/11/08 00:15:00;;;;;;;0.50;0.50;;;12.30;99.90;;;;;;5077037;28;20054;-76
2022/11/08 00:17:28;;;;;;;0.25;0.25;;;12.30;99.90;;;;;;5077928;28;20385;-76
2022/11/08 00:19:54;;;;;;;0.30;0.30;;;12.30;99.90;;;;;;5076087;28;20048;-76
2022/11/08 00:22:20;;;;;;;0.20;0.20;;;12.30;99.90;;;;;;5107632;27;20052;-76
2022/11/08 00:24:46;;;;;;;0.55;0.55;;;12.30;99.90;;;;;;5097240;28;20051;-77
2022/11/08 00:27:20;;;;;;;0.40;0.40;;;11.80;99.90;;;;;;5077209;28;20036;-77
2022/11/08 00:29:46;;;;;;;0.57;0.40;;;12.30;99.90;;;;;;5103806;27;20051;-76
2022/11/08 00:32:20;;;;;;;0.32;0.32;;;12.30;99.90;;;;;;5092023;28;20365;-75
2022/11/08 00:34:47;;;;;;;0.40;0.40;;;12.30;99.90;;;;;;5053335;28;20058;-76
2022/11/08 00:37:20;;;;;;;0.40;0.40;;;12.20;99.90;;;;;;5084818;27;20400;-77
2022/11/08 00:39:46;;;;;;;0.30;0.30;;;12.20;99.90;;;;;;5071475;28;20537;-75
2022/11/08 00:42:12;;;;;;;0.30;0.30;;;12.30;99.90;;;;;;5072622;28;20044;-76
2022/11/08 00:44:38;;;;;;;0.30;0.30;;;12.20;99.90;;;;;;5086962;28;20639;-76
2022/11/08 00:47:04;;;;;;;0.75;0.75;;;12.30;99.90;;;;;;5070420;28;20043;-75
2022/11/08 00:49:29;;;;;;;0.28;0.28;;;12.20;99.90;;;;;;5070291;28;21276;-77
2022/11/08 00:51:55;;;;;;;;;;;12.30;99.90;;;;;;5069090;28;20039;-76
2022/11/08 00:54:21;;;;;;;0.30;0.30;;;12.30;99.90;;;;;;5073396;28;19927;-76
2022/11/08 00:56:47;;;;;;;;;;;12.20;99.90;;;;;;5056555;28;20044;-76
2022/11/08 00:59:15;;;;;;;0.40;0.40;;;12.20;99.90;;;;;;5100297;27;19924;-77
2022/11/08 01:01:42;;;;;;;0.35;0.35;;;12.20;99.90;;;;;;5068284;28;20036;-76
2022/11/08 01:04:13;;;;;;;0.30;0.30;;;12.20;99.90;;;;;;5072693;28;20077;-77
2022/11/08 01:06:40;;;;;;;0.32;0.32;;;12.20;99.90;;;;;;5065911;28;20929;-76
2022/11/08 01:09:06;;;;;;;0.70;0.70;;;12.30;99.90;;;;;;5086068;28;20108;-76
2022/11/08 01:11:32;;;;;;;0.43;0.40;;;12.30;99.90;;;;;;5070011;28;20165;-76
2022/11/08 01:13:58;;;;;;;;;;;12.30;99.90;;;;;;5053871;28;20218;-76
2022/11/08 01:16:26;;;;;;;0.50;0.50;;;12.30;99.90;;;;;;5070329;28;19923;-78
2022/11/08 01:18:53;;;;;;;0.30;0.30;;;12.30;99.90;;;;;;5068241;28;20142;-78
2022/11/08 01:21:20;;;;;;;0.30;0.30;;;12.30;99.90;;;;;;5068311;28;20047;-76
2022/11/08 01:23:46;;;;;;;0.50;0.50;;;12.30;99.90;;;;;;5069903;28;20067;-77
2022/11/08 01:26:18;;;;;;;0.30;0.30;;;12.40;99.90;;;;;;5050440;28;20081;-78
2022/11/08 01:28:45;;;;;;;0.40;0.40;;;12.40;99.90;;;;;;5065922;28;20055;-77
2022/11/08 01:31:16;;;;;;;0.20;0.20;;;12.30;99.90;;;;;;5071444;28;20040;-75
2022/11/08 01:33:42;;;;;;;0.40;0.40;;;12.30;99.90;;;;;;5070695;28;20050;-76
2022/11/08 01:36:09;;;;;;;0.20;0.20;;;12.30;99.90;;;;;;5069959;28;20768;-77
2022/11/08 01:38:35;;;;;;;3.30;0.60;;;12.20;99.90;;;;;;5054636;28;20079;-77
2022/11/08 01:41:01;;;;;;;;;;;12.10;99.90;;;;;;5070556;28;20067;-78
2022/11/08 01:43:33;;;;;;;0.30;0.30;;;12.00;99.90;;;;;;5102783;28;19967;-76
2022/11/08 01:46:19;;;;;;;0.30;0.30;;;11.90;99.90;;;;;;5057199;28;20039;-76
2022/11/08 01:49:11;;;;;;;0.38;0.38;;;11.80;99.90;;;;;;5078925;28;20055;-77
2022/11/08 01:51:48;;;;;;;0.40;0.40;;;11.70;99.90;;;;;;5071949;28;20063;-75
2022/11/08 01:54:19;;;;;;;0.30;0.30;;;11.70;99.90;;;;;;5070271;28;20078;-76
2022/11/08 01:56:47;;;;;;;0.40;0.40;;;11.70;99.90;;;;;;5074869;28;20380;-77
2022/11/08 01:59:16;;;;;;;0.65;0.40;;;11.70;99.90;;;;;;5071298;28;21003;-78
2022/11/08 02:01:42;;;;;;;0.30;0.30;;;11.70;99.90;;;;;;5071501;28;20071;-77
2022/11/08 02:04:09;;;;;;;0.30;0.30;;;11.80;99.90;;;;;;5070092;28;20044;-78
2022/11/08 02:06:37;;;;;;;0.90;0.70;;;11.70;99.90;;;;;;5071393;28;20128;-76
2022/11/08 02:09:07;;;;;;;0.20;0.20;;;11.80;99.90;;;;;;5073120;28;20048;-77
2022/11/08 02:11:33;;;;;;;0.40;0.40;;;11.70;99.90;;;;;;5103372;28;20050;-77
2022/11/08 02:14:00;;;;;;;0.22;0.22;;;11.70;99.90;;;;;;5085438;28;20051;-80
2022/11/08 02:16:25;;;;;;;0.20;0.20;;;11.70;99.90;;;;;;5070301;28;20048;-77
2022/11/08 02:18:51;;;;;;;0.30;0.30;;;11.70;99.90;;;;;;5104879;27;20079;-77
2022/11/08 02:21:26;;;;;;;0.95;0.95;;;11.70;99.90;;;;;;5101847;28;20036;-77
2022/11/08 02:23:56;;;;;;;0.32;0.32;;;11.70;99.90;;;;;;5056148;28;20035;-78
2022/11/08 02:26:24;;;;;;;0.60;0.60;;;11.70;99.90;;;;;;5074388;28;20104;-78
2022/11/08 02:28:50;;;;;;;0.30;0.30;;;11.70;99.90;;;;;;5073443;28;20051;-76
2022/11/08 02:31:18;;;;;;;2.03;0.57;;;11.70;99.90;;;;;;5073231;28;20039;-76
2022/11/08 02:33:44;;;;;;;0.30;0.30;;;11.60;99.90;;;;;;5076401;27;20084;-77
2022/11/08 02:36:14;;;;;;;0.40;0.40;;;11.60;99.90;;;;;;5076051;28;20110;-77
2022/11/08 02:38:45;;;;;;;1.20;0.40;;;11.50;99.90;;;;;;5080454;28;20027;-77
2022/11/08 02:41:10;;;;;;;0.47;0.47;;;11.50;99.90;;;;;;5057442;27;20135;-77
2022/11/08 02:43:36;;;;;;;0.30;0.30;;;11.40;99.90;;;;;;5106805;27;20031;-77
2022/11/08 02:46:02;;;;;;;0.30;0.30;;;11.40;99.90;;;;;;5079477;28;20055;-77
2022/11/08 02:48:28;;;;;;;0.40;0.40;;;11.30;99.90;;;;;;5073017;28;21954;-77
2022/11/08 02:50:54;;;;;;;0.55;0.55;;;11.30;99.90;;;;;;5072606;27;20047;-77
2022/11/08 02:53:20;;;;;;;;;;;11.20;99.90;;;;;;5092107;28;20617;-78
2022/11/08 02:55:45;;;;;;;0.30;0.30;;;11.20;99.90;;;;;;5073543;28;19920;-78
2022/11/08 02:58:11;;;;;;;0.40;0.40;;;11.10;99.90;;;;;;5088782;27;20127;-79
2022/11/08 03:00:38;;;;;;;0.65;0.65;;;11.10;99.90;;;;;;5074367;28;20074;-76
2022/11/08 03:03:04;;;;;;;;;;;11.00;99.90;;;;;;5092512;28;20116;-77
2022/11/08 03:05:30;;;;;;;0.38;0.38;;;11.00;99.90;;;;;;5105548;27;19920;-77
2022/11/08 03:07:56;;;;;;;;;;;11.00;99.90;;;;;;5073024;28;20477;-76
2022/11/08 03:10:23;;;;;;;0.30;0.30;;;11.00;99.90;;;;;;5097155;27;19915;-77
2022/11/08 03:13:01;;;;;;;0.30;0.30;;;10.90;99.90;;;;;;5056808;28;20065;-78
2022/11/08 03:15:28;;;;;;;0.40;0.40;;;10.90;99.90;;;;;;5054306;28;20846;-76
2022/11/08 03:17:58;;;;;;;3.45;1.55;;;10.90;99.90;;;;;;5105863;27;20058;-77
2022/11/08 03:20:25;;;;;;;0.65;0.65;;;10.90;99.90;;;;;;5075105;28;20131;-78
2022/11/08 03:22:58;;;;;;;0.30;0.30;;;10.90;99.90;;;;;;5106944;27;20138;-77
2022/11/08 03:25:25;;;;;;;0.82;0.82;;;10.90;99.90;;;;;;5074699;28;20048;-77
2022/11/08 03:27:50;;;;;;;1.63;0.70;;;10.90;99.90;;;;;;5057233;27;20359;-77
2022/11/08 03:30:16;;;;;;;0.30;0.30;;;10.90;99.90;;;;;;5061663;28;20047;-77
2022/11/08 03:32:48;;;;;;;0.38;0.38;;;10.90;99.90;;;;;;5088631;28;20036;-77
2022/11/08 03:35:14;;;;;;;0.43;0.43;;;10.90;99.90;;;;;;5074817;28;20390;-77
2022/11/08 03:37:40;;;;;;;0.43;0.43;;;10.90;99.90;;;;;;5074303;28;20054;-78
2022/11/08 03:40:06;;;;;;;0.40;0.40;;;10.90;99.90;;;;;;5060154;28;20044;-79
2022/11/08 03:42:33;;;;;;;0.40;0.40;;;10.80;99.90;;;;;;5070358;28;20046;-76
2022/11/08 03:44:58;;;;;;;0.68;0.68;;;10.80;99.90;;;;;;5052048;28;20050;-76
2022/11/08 03:47:24;;;;;;;0.40;0.40;;;10.70;99.90;;;;;;5105177;27;20036;-76
2022/11/08 03:49:50;;;;;;;0.43;0.43;;;10.80;99.90;;;;;;5085961;28;20044;-76
2022/11/08 03:52:15;;;;;;;4.78;0.85;;;10.80;99.90;;;;;;5072016;28;20042;-77
2022/11/08 03:54:41;;;;;;;0.32;0.32;;;10.70;99.90;;;;;;5091174;28;20039;-77
2022/11/08 03:57:07;;;;;;;0.38;0.38;;;10.70;99.90;;;;;;5053202;27;20035;-76
2022/11/08 03:59:32;;;;;;;0.30;0.30;;;10.70;99.90;;;;;;5073186;28;20130;-76
2022/11/08 04:01:58;;;;;;;0.40;0.40;;;10.60;99.90;;;;;;5089940;27;20043;-75
2022/11/08 04:04:24;;;;;;;0.40;0.40;;;10.60;99.90;;;;;;5072224;28;20039;-76
2022/11/08 04:06:49;;;;;;;0.28;0.28;;;10.50;99.90;;;;;;5071953;28;20035;-76
2022/11/08 04:09:15;;;;;;;0.40;0.40;;;10.50;99.90;;;;;;5061486;28;20093;-76
2022/11/08 04:17:10;;;;;;;0.50;0.50;;;10.50;99.90;;;;;;5088578;28;20426;-77
2022/11/08 04:22:20;;;;;;;0.52;0.52;;;10.50;99.90;;;;;;5084758;28;20044;-77
2022/11/08 04:24:45;;;;;;;0.38;0.38;;;10.40;99.90;;;;;;5103903;27;20104;-77
2022/11/08 04:27:11;;;;;;;0.30;0.30;;;10.40;99.90;;;;;;5103622;27;20040;-77
2022/11/08 04:29:37;;;;;;;0.45;0.45;;;10.40;99.90;;;;;;5070156;28;20044;-77
2022/11/08 04:32:03;;;;;;;0.30;0.30;;;10.40;99.90;;;;;;5074547;28;20043;-76
2022/11/08 04:34:29;;;;;;;0.50;0.50;;;10.40;99.90;;;;;;5087090;28;20425;-77
2022/11/08 04:36:54;;;;;;;0.30;0.30;;;10.40;99.90;;;;;;5074865;28;20075;-78
2022/11/08 04:39:20;;;;;;;0.60;0.60;;;10.40;99.90;;;;;;5106001;27;20135;-77
2022/11/08 04:41:45;;;;;;;0.43;0.43;;;10.40;99.90;;;;;;5089881;27;20405;-77
2022/11/08 04:44:13;;;;;;;0.40;0.40;;;10.40;99.90;;;;;;5069754;28;20058;-76
2022/11/08 04:46:39;;;;;;;0.25;0.25;;;10.40;99.90;;;;;;5067876;28;20028;-76
2022/11/08 04:49:04;;;;;;;0.60;0.60;;;10.40;99.90;;;;;;5070233;28;20051;-77
2022/11/08 04:51:32;;;;;;;0.45;0.45;;;10.40;99.90;;;;;;5070830;28;20044;-77
2022/11/08 04:54:00;;;;;;;0.40;0.40;;;10.40;99.90;;;;;;5070571;28;20885;-77
2022/11/08 04:56:27;;;;;;;0.30;0.30;;;10.40;99.90;;;;;;5069366;28;20051;-76
2022/11/08 04:58:58;;;;;;;0.30;0.30;;;10.40;99.90;;;;;;5088860;28;20044;-76
2022/11/08 05:01:30;;;;;;;0.30;0.30;;;10.40;99.90;;;;;;5067107;28;20055;-78
2022/11/08 05:03:57;;;;;;;2.47;1.60;;;10.40;99.90;;;;;;5086538;28;20044;-77
2022/11/08 05:06:30;;;;;;;0.40;0.40;;;10.40;99.90;;;;;;5069068;28;20036;-76
2022/11/08 05:08:57;;;;;;;0.95;0.95;;;10.40;99.90;;;;;;5070115;28;20059;-76
2022/11/08 05:11:25;;;;;;;0.40;0.40;;;10.40;99.90;;;;;;5069555;28;20105;-77
2022/11/08 05:13:51;;;;;;;0.30;0.30;;;10.40;99.90;;;;;;5101879;28;20043;-77
2022/11/08 05:16:19;;;;;;;0.40;0.40;;;10.40;99.90;;;;;;5072869;28;20500;-76
2022/11/08 05:18:45;;;;;;;0.40;0.40;;;10.30;99.90;;;;;;5087427;28;21091;-76
2022/11/08 05:23:59;;;;;;;0.68;0.68;;;10.30;99.90;;;;;;5069766;28;19924;-77
2022/11/08 05:26:25;;;;;;;0.50;0.50;;;10.30;99.90;;;;;;5069897;28;20047;-76
2022/11/08 05:28:51;;;;;;;0.60;0.60;;;10.30;99.90;;;;;;5072715;28;20039;-77
2022/11/08 05:31:17;;;;;;;0.40;0.40;;;10.20;99.90;;;;;;5073223;28;20552;-77
2022/11/08 05:33:43;;;;;;;13.10;0.95;;;10.20;99.90;;;;;;5056523;28;20047;-76
2022/11/08 05:36:10;;;;;;;;;;;10.20;99.90;;;;;;5088920;28;20062;-77
2022/11/08 05:38:36;;;;;;;;;;;10.20;99.90;;;;;;5072877;28;19924;-76
2022/11/08 05:41:03;;;;;;;0.40;0.40;;;10.20;99.90;;;;;;5071777;28;19922;-77
2022/11/08 05:43:29;;;;;;;0.50;0.50;;;10.20;99.90;;;;;;5071121;28;20063;-76
2022/11/08 05:45:55;;;;;;;0.43;0.43;;;10.20;99.90;;;;;;5067851;28;20040;-76
2022/11/08 05:48:20;;;;;;;0.40;0.40;;;10.10;99.90;;;;;;5070498;28;20118;-77
2022/11/08 05:50:47;;;;;;;0.50;0.50;;;10.10;99.90;;;;;;5073485;28;20054;-76
2022/11/08 05:53:12;;;;;;;0.50;0.50;;;10.10;99.90;;;;;;5067667;28;20063;-77
2022/11/08 05:55:38;;;;;;;0.30;0.30;;;10.10;99.90;;;;;;5070491;28;20078;-77
2022/11/08 05:58:04;;;;;;;0.40;0.40;;;10.10;99.90;;;;;;5088558;27;20044;-77
2022/11/08 06:00:30;;;;;;;0.65;0.65;;;10.10;99.90;;;;;;5074812;28;20043;-76
2022/11/08 06:02:55;;;;;;;0.40;0.40;;;10.00;99.90;;;;;;5076604;28;20170;-77
2022/11/08 06:05:21;;;;;;;0.40;0.40;;;10.00;99.90;;;;;;5062087;27;20382;-79
2022/11/08 06:07:46;;;;;;;0.95;0.90;;;9.90;99.90;;;;;;5072558;28;20506;-76
2022/11/08 06:10:12;;;;;;;0.35;0.35;;;9.90;99.90;;;;;;5091191;27;20035;-77
2022/11/08 06:12:38;;;;;;;0.40;0.40;;;10.00;99.90;;;;;;5109288;27;20051;-77
2022/11/08 06:15:08;;;;;;;0.30;0.30;;;10.00;99.90;;;;;;5072058;27;20416;-77
2022/11/08 06:17:33;;;;;;;0.40;0.40;;;9.90;99.90;;;;;;5055212;28;20047;-78
2022/11/08 06:20:02;;;;;;;0.40;0.40;;;9.90;99.90;;;;;;5070606;28;20488;-77
2022/11/08 06:22:32;;;;;;;0.38;0.38;;;9.90;99.90;;;;;;5074934;28;21942;-76
2022/11/08 06:24:58;;;;;;;0.30;0.30;;;9.90;99.90;;;;;;5087599;27;20062;-76
2022/11/08 06:27:23;;;;;;;0.40;0.40;;;9.80;99.90;;;;;;5070951;28;20032;-76
2022/11/08 06:29:50;;;;;;;0.38;0.38;;;9.90;99.90;;;;;;5073358;28;20044;-77
2022/11/08 06:32:16;;;;;;;0.30;0.30;;;9.90;99.90;;;;;;5072351;28;20052;-78
2022/11/08 06:34:44;;;;;;;0.40;0.40;;;9.80;99.90;;;;;;5072141;28;20052;-77
2022/11/08 06:37:11;;;;;;;0.40;0.40;;;9.90;99.90;;;;;;5071200;28;20056;-78
2022/11/08 06:39:36;;;;;;;;;;;10.00;99.90;;;;;;5073931;28;20050;-78
2022/11/08 06:42:02;;;;;;;0.30;0.30;;;10.00;99.90;;;;;;5074889;27;19915;-78
2022/11/08 06:44:28;;;;;;;0.30;0.30;;;10.00;99.90;;;;;;5069964;28;20483;-77
2022/11/08 06:46:56;;;;;;;0.40;0.40;;;10.00;99.90;;;;;;5054817;28;20039;-77
2022/11/08 06:49:23;;;;;;;0.30;0.30;;;10.00;99.90;;;;;;5091019;28;20052;-78
2022/11/08 06:51:49;;;;;;;0.43;0.43;;;10.00;99.90;;;;;;5074028;28;20040;-77
2022/11/08 06:54:16;;;;;;;0.30;0.30;;;10.00;99.90;;;;;;5078348;28;20070;-77
2022/11/08 06:56:43;;;;;;;0.50;0.50;;;10.10;99.90;;;;;;5075061;28;20074;-76
2022/11/08 06:59:09;;;;;;;0.30;0.30;;;10.10;99.90;;;;;;5078138;28;20298;-78
2022/11/08 07:01:35;;;;;;;0.30;0.30;;;10.10;99.90;;;;;;5075774;28;20039;-78
2022/11/08 07:04:01;;;;;;;0.50;0.50;;;10.20;99.90;;;;;;5072892;28;20479;-77
2022/11/08 07:06:27;;;;;;;;;;;10.30;99.90;;;;;;5072811;28;20646;-78
2022/11/08 07:08:52;;;;;;;0.50;0.50;;;10.30;99.90;;;;;;5093507;28;19978;-79
2022/11/08 07:11:18;;;;;;;1.55;1.50;;;10.30;99.90;;;;;;5060074;28;20047;-78
2022/11/08 07:13:48;;;;;;;0.40;0.40;;;10.40;99.90;;;;;;5098179;27;20702;-78
2022/11/08 07:16:16;;;;;;;0.55;0.55;;;10.40;99.90;;;;;;5106096;27;20602;-78
2022/11/08 07:18:42;;;;;;;0.38;0.38;;;10.40;99.90;;;;;;5075375;28;20044;-78
2022/11/08 07:21:08;;;;;;;0.50;0.50;;;10.50;99.90;;;;;;5062410;28;20123;-77
2022/11/08 07:23:34;;;;;;;0.20;0.20;;;10.50;99.90;;;;;;5081206;28;20107;-78
2022/11/08 07:26:04;;;;;;;0.75;0.75;;;10.60;99.90;;;;;;5109415;27;20069;-76
2022/11/08 07:28:30;;;;;;;0.57;0.57;;;10.60;99.90;;;;;;5079274;28;20133;-76
2022/11/08 07:30:57;;;;;;;;;;;10.60;99.90;;;;;;5074541;28;20028;-80
2022/11/08 07:33:23;;;;;;;0.57;0.55;;;10.70;99.90;;;;;;5079713;27;19916;-80
2022/11/08 07:35:48;;;;;;;0.50;0.50;;;10.70;99.90;;;;;;5068253;28;21180;-78
2022/11/08 07:38:14;;;;;;;0.50;0.50;;;10.80;99.90;;;;;;5058908;28;20089;-77
2022/11/08 07:40:40;;;;;;;0.90;0.70;;;10.90;99.90;;;;;;5076895;28;20135;-79
2022/11/08 07:43:05;;;;;;;0.40;0.40;;;10.90;99.90;;;;;;5074092;28;20069;-79
2022/11/08 07:45:31;;;;;;;0.40;0.40;;;10.90;99.90;;;;;;5086936;28;20468;-77
2022/11/08 07:48:05;;;;;;;0.40;0.40;;;11.00;99.90;;;;;;5060791;28;20047;-77
2022/11/08 07:50:31;;;;;;;0.40;0.40;;;11.00;99.90;;;;;;5066273;28;20105;-78
2022/11/08 07:52:57;;;;;;;0.30;0.30;;;11.00;99.90;;;;;;5073278;28;20067;-78
2022/11/08 07:55:24;;;;;;;0.40;0.40;;;11.10;99.90;;;;;;5074096;28;20044;-79
2022/11/08 07:57:50;;;;;;;0.50;0.50;;;11.10;99.90;;;;;;5095412;28;20039;-78
2022/11/08 08:00:16;;;;;;;;;;;11.20;99.90;;;;;;5058783;27;20068;-76
2022/11/08 08:02:42;;;;;;;0.50;0.50;;;11.20;99.90;;;;;;5073640;28;19920;-78
2022/11/08 08:05:08;;;;;;;0.40;0.40;;;11.30;99.90;;;;;;5093457;28;20053;-79
2022/11/08 08:07:37;;;;;;;0.30;0.30;;;11.30;99.90;;;;;;5075930;28;21105;-80
2022/11/08 08:10:03;;;;;;;0.40;0.40;;;11.40;99.90;;;;;;5074891;28;20067;-77
2022/11/08 08:12:29;;;;;;;0.30;0.30;;;11.50;99.90;;;;;;5093157;28;20093;-80
2022/11/08 08:14:54;;;;;;;0.40;0.40;;;11.60;99.90;;;;;;5092820;27;20122;-79
2022/11/08 08:17:20;;;;;;;0.30;0.30;;;11.60;99.90;;;;;;5054808;28;20124;-80
2022/11/08 08:19:46;;;;;;;0.47;0.47;;;11.60;99.90;;;;;;5073596;28;20043;-78
2022/11/08 08:22:12;;;;;;;0.40;0.40;;;11.70;99.90;;;;;;5047270;28;20069;-79
2022/11/08 08:24:37;;;;;;;0.57;0.57;;;11.80;99.90;;;;;;5074839;28;20192;-79
2022/11/08 08:27:03;;;;;;;0.30;0.30;;;11.80;99.90;;;;;;5072798;28;20032;-79
2022/11/08 08:29:29;;;;;;;0.35;0.35;;;11.80;99.90;;;;;;5073587;28;20032;-81
2022/11/08 08:31:55;;;;;;;0.30;0.30;;;11.90;99.90;;;;;;5072912;28;20066;-78
2022/11/08 08:34:20;;;;;;;0.50;0.50;;;11.80;99.90;;;;;;5059985;28;20476;-77
2022/11/08 08:36:46;;;;;;;0.30;0.30;;;11.90;99.90;;;;;;5074322;28;20039;-78
2022/11/08 08:39:12;;;;;;;0.40;0.40;;;11.90;99.90;;;;;;5072041;28;20043;-79
2022/11/08 08:41:39;;;;;;;0.30;0.30;;;11.90;99.90;;;;;;5088340;28;20051;-83
2022/11/08 08:44:04;;;;;;;0.35;0.35;;;11.90;99.90;;;;;;5067742;28;20090;-78
2022/11/08 08:46:31;;;;;;;0.40;0.40;;;11.90;99.90;;;;;;5070632;28;20462;-79
2022/11/08 08:48:56;;;;;;;0.30;0.30;;;11.90;99.90;;;;;;5072274;28;20051;-78
2022/11/08 08:51:22;;;;;;;0.40;0.40;;;11.90;99.90;;;;;;5073451;28;20051;-79
2022/11/08 08:53:48;;;;;;;3.88;2.15;;;12.10;99.90;;;;;;5073339;28;20132;-79
2022/11/08 08:56:13;;;;;;;0.25;0.25;;;12.10;99.90;;;;;;5057221;27;20110;-78
2022/11/08 08:58:39;;;;;;;0.40;0.40;;;12.10;99.90;;;;;;5049249;28;20062;-78
2022/11/08 09:01:09;;;;;;;0.40;0.40;;;12.20;99.90;;;;;;5067208;28;20051;-77
2022/11/08 09:03:35;;;;;;;0.30;0.30;;;12.20;99.90;;;;;;5084479;28;22384;-78
2022/11/08 09:06:02;;;;;;;0.40;0.40;;;12.30;99.90;;;;;;5054041;28;20028;-77
2022/11/08 09:08:28;;;;;;;0.20;0.20;;;12.30;99.90;;;;;;5072190;28;20052;-78
2022/11/08 09:10:58;;;;;;;0.30;0.30;;;12.40;99.90;;;;;;5105529;27;20439;-79
2022/11/08 09:13:26;;;;;;;0.30;0.30;;;12.50;99.90;;;;;;5075232;28;20389;-78
2022/11/08 09:16:02;;;;;;;0.30;0.30;;;12.60;99.90;;;;;;5086786;28;20051;-78
2022/11/08 09:18:28;;;;;;;0.30;0.30;;;12.70;99.90;;;;;;5086193;28;20055;-77
2022/11/08 09:20:58;;;;;;;0.80;0.63;;;12.80;99.90;;;;;;5095938;28;20043;-78
2022/11/08 09:23:24;;;;;;;0.30;0.30;;;12.80;99.90;;;;;;5083306;28;20075;-77
2022/11/08 09:25:56;;;;;;;0.30;0.30;;;12.80;99.90;;;;;;5076109;28;20042;-78
2022/11/08 09:28:21;;;;;;;0.55;0.50;;;12.80;99.90;;;;;;5077790;28;20051;-79
2022/11/08 09:30:47;;;;;;;0.30;0.30;;;12.90;99.90;;;;;;5074639;28;20043;-77
2022/11/08 09:33:13;;;;;;;0.32;0.32;;;12.90;99.90;;;;;;5076139;28;20083;-78
2022/11/08 09:35:40;;;;;;;0.50;0.47;;;12.90;99.90;;;;;;5092778;28;20050;-77
2022/11/08 09:38:06;;;;;;;0.35;0.35;;;13.00;99.90;;;;;;5076663;28;20044;-78
2022/11/08 09:40:36;;;;;;;;;;;13.00;99.90;;;;;;5076531;28;20053;-77
2022/11/08 09:43:37;;;;;;;0.80;0.80;;;13.10;99.90;;;;;;5074903;28;19926;-78
2022/11/08 09:46:03;;;;;;;2.90;0.40;;;13.20;99.90;;;;;;5074912;28;20043;-77
2022/11/08 09:48:36;;;;;;;0.30;0.30;;;13.20;99.90;;;;;;5092114;28;20541;-80
2022/11/08 09:51:14;;;;;;;0.20;0.20;;;13.30;99.90;;;;;;5110855;27;20044;-77
2022/11/08 09:53:44;;;;;;;0.50;0.50;;;13.40;99.90;;;;;;5078552;28;20154;-78
2022/11/08 09:56:36;;;;;;;0.30;0.30;;;13.40;99.90;;;;;;5078592;28;20073;-78
2022/11/08 09:59:27;;;;;;;0.50;0.50;;;13.40;99.90;;;;;;5077643;28;20051;-77
2022/11/08 10:01:53;;;;;;;0.43;0.43;;;13.50;99.90;;;;;;5076817;28;20039;-78
2022/11/08 10:04:24;;;;;;;0.63;0.63;;;13.60;99.90;;;;;;5076898;28;20035;-77
2022/11/08 10:06:53;;;;;;;0.30;0.30;;;13.60;99.90;;;;;;5076089;28;20047;-78
2022/11/08 10:09:28;;;;;;;0.30;0.30;;;13.70;99.90;;;;;;5074711;28;20048;-80
2022/11/08 10:12:25;;;;;;;0.20;0.20;;;13.70;99.90;;;;;;5093726;28;20495;-77
2022/11/08 10:15:10;;;;;;;0.70;0.63;;;13.80;99.90;;;;;;5042300;28;20046;-77
2022/11/08 10:18:00;;;;;;;0.30;0.30;;;13.80;99.90;;;;;;5069756;28;20044;-80
2022/11/08 10:20:29;;;;;;;0.20;0.20;;;13.80;99.90;;;;;;5076822;28;20052;-78
2022/11/08 10:23:20;;;;;;;2.38;1.13;;;13.80;99.90;;;;;;5092849;28;20040;-79
2022/11/08 10:26:16;;;;;;;0.38;0.38;;;13.80;99.90;;;;;;5077166;28;20044;-79
2022/11/08 10:28:58;;;;;;;0.20;0.20;;;13.80;99.90;;;;;;5065454;28;20108;-80
2022/11/08 10:31:29;;;;;;;1.58;1.48;;;13.80;99.90;;;;;;5076346;28;20039;-77
2022/11/08 10:33:57;;;;;;;0.30;0.30;;;13.80;99.90;;;;;;5076193;28;20043;-80
2022/11/08 10:36:32;;;;;;;4.88;1.27;;;13.80;99.90;;;;;;5057044;28;20101;-78
2022/11/08 10:39:12;;;;;;;0.82;0.70;;;13.90;99.90;;;;;;5066285;28;20047;-77
2022/11/08 10:41:57;;;;;;;0.20;0.20;;;13.90;99.90;;;;;;5075182;28;20632;-77
2022/11/08 10:44:25;;;;;;;0.35;0.35;;;13.90;99.90;;;;;;5092509;28;20040;-77
2022/11/08 10:47:01;;;;;;;0.20;0.20;;;14.00;99.90;;;;;;5061057;28;20040;-76
2022/11/08 10:49:37;;;;;;;0.65;0.40;;;13.90;99.90;;;;;;5073907;28;20052;-78
2022/11/08 10:52:24;;;;;;;0.20;0.20;;;13.90;99.90;;;;;;5093579;28;20056;-77
2022/11/08 10:54:51;;;;;;;0.30;0.30;;;13.70;99.90;;;;;;5075208;28;20068;-77
2022/11/08 10:57:36;;;;;;;0.30;0.30;;;13.70;99.90;;;;;;5077544;28;20450;-77
2022/11/08 11:00:20;;;;;;;0.30;0.30;;;13.60;99.90;;;;;;5073279;28;20169;-77
2022/11/08 11:02:54;;;;;;;0.30;0.30;;;13.60;99.90;;;;;;5095567;28;20060;-77
2022/11/08 11:05:31;;;;;;;0.57;0.57;;;13.60;99.90;;;;;;5053805;27;20072;-79
2022/11/08 11:08:08;;;;;;;0.77;0.77;;;13.60;99.90;;;;;;5070933;28;20130;-79
2022/11/08 11:10:47;;;;;;;0.50;0.50;;;13.60;99.90;;;;;;5076547;28;20093;-77
2022/11/08 11:13:22;;;;;;;0.43;0.43;;;13.70;99.90;;;;;;5104364;27;20036;-77
2022/11/08 11:16:11;;;;;;;0.20;0.20;;;13.70;99.90;;;;;;5074832;28;20055;-77
2022/11/08 11:18:45;;;;;;;0.47;0.47;;;13.80;99.90;;;;;;5079024;28;20040;-77
2022/11/08 11:21:16;;;;;;;0.75;0.65;;;13.90;99.90;;;;;;5091902;28;20131;-78
2022/11/08 11:23:52;;;;;;;0.30;0.30;;;14.00;99.90;;;;;;5094163;27;20036;-77
2022/11/08 11:26:57;;;;;;;0.35;0.35;;;14.00;99.90;;;;;;5063408;28;20051;-78
2022/11/08 11:29:46;;;;;;;0.65;0.50;;;14.10;99.90;;;;;;5068985;28;20039;-77
2022/11/08 11:32:33;;;;;;;0.30;0.30;;;14.10;99.90;;;;;;5091763;28;20048;-77
2022/11/08 11:35:04;;;;;;;0.60;0.60;;;14.20;99.90;;;;;;5092938;28;20040;-77
2022/11/08 11:37:43;;;;;;;0.30;0.30;;;14.20;99.90;;;;;;5074157;28;20082;-77
2022/11/08 11:40:33;;;;;;;0.30;0.30;;;14.30;99.90;;;;;;5093224;28;20252;-81
2022/11/08 11:43:18;;;;;;;0.20;0.20;;;14.40;99.90;;;;;;5104982;27;20068;-78
2022/11/08 11:46:16;;;;;;;0.20;0.20;;;14.50;99.90;;;;;;5073651;28;20415;-77
2022/11/08 11:48:49;;;;;;;0.40;0.40;;;14.70;99.90;;;;;;5072213;27;20047;-76
2022/11/08 11:51:15;;;;;;;2.20;0.80;;;14.60;99.90;;;;;;5057990;28;20043;-78
2022/11/08 11:53:41;;;;;;;0.65;0.35;;;14.60;99.90;;;;;;5072251;28;20054;-78
2022/11/08 11:56:41;;;;;;;0.35;0.35;;;14.60;99.90;;;;;;5068570;28;20058;-79
2022/11/08 11:59:34;;;;;;;0.20;0.20;;;14.60;99.90;;;;;;5051980;28;20143;-78
2022/11/08 12:02:37;;;;;;;0.60;0.60;;;14.60;99.90;;;;;;5071075;28;21771;-78
2022/11/08 12:05:34;;;;;;;0.30;0.30;;;14.70;99.90;;;;;;5089582;27;20169;-77
2022/11/08 12:08:29;;;;;;;0.30;0.30;;;14.80;99.90;;;;;;5063635;28;21002;-80
2022/11/08 12:11:06;;;;;;;0.40;0.40;;;14.80;99.90;;;;;;5075839;28;21679;-77
2022/11/08 12:14:17;;;;;;;0.30;0.30;;;14.90;99.90;;;;;;5069166;28;20622;-80
2022/11/08 12:17:20;;;;;;;0.68;0.68;;;14.90;99.90;;;;;;5062851;28;20078;-79
2022/11/08 12:20:01;;;;;;;0.80;0.80;;;14.90;99.90;;;;;;5069865;28;20043;-79
2022/11/08 12:22:59;;;;;;;2.58;2.35;;;15.00;99.90;;;;;;5071750;28;20792;-81
2022/11/08 12:25:35;;;;;;;0.35;0.35;;;15.10;99.90;;;;;;5069452;28;20464;-80
2022/11/08 12:28:27;;;;;;;0.20;0.20;;;15.00;99.90;;;;;;5034574;28;20059;-77
2022/11/08 12:31:19;;;;;;;0.40;0.40;;;15.00;99.90;;;;;;5066933;28;20043;-77
2022/11/08 12:34:15;;;;;;;0.30;0.30;;;15.00;99.90;;;;;;5020279;28;20052;-78
2022/11/08 12:37:23;;;;;;;0.30;0.30;;;14.90;99.90;;;;;;5083542;28;20086;-77
2022/11/08 12:39:56;;;;;;;0.30;0.30;;;15.00;99.90;;;;;;5063965;28;20088;-77
2022/11/08 12:43:07;;;;;;;0.30;0.30;;;15.00;99.90;;;;;;5069944;28;20048;-82
2022/11/08 12:46:04;;;;;;;0.40;0.40;;;14.90;99.90;;;;;;5007869;28;20059;-80
2022/11/08 12:49:07;;;;;;;0.30;0.30;;;14.80;99.90;;;;;;5062264;28;20062;-77
2022/11/08 12:51:57;;;;;;;0.40;0.40;;;14.70;99.90;;;;;;5035645;28;20048;-79
2022/11/08 12:54:25;;;;;;;0.30;0.30;;;14.70;99.90;;;;;;5060984;28;20379;-79
2022/11/08 12:56:54;;;;;;;0.30;0.30;;;14.70;99.90;;;;;;5057538;28;20052;-80
2022/11/08 12:59:36;;;;;;;0.50;0.50;;;14.70;99.90;;;;;;5086493;27;20087;-80
2022/11/08 13:02:03;;;;;;;0.30;0.30;;;14.70;99.90;;;;;;5036309;28;20082;-79
2022/11/08 13:04:51;;;;;;;0.50;0.50;;;14.70;99.90;;;;;;5035621;28;20045;-78
2022/11/08 13:07:16;;;;;;;0.28;0.28;;;14.70;99.90;;;;;;5036265;28;20181;-77
2022/11/08 13:10:07;;;;;;;0.20;0.20;;;14.70;99.90;;;;;;5051975;28;20061;-77
2022/11/08 13:13:00;;;;;;;0.45;0.45;;;14.70;99.90;;;;;;5037501;28;20055;-80
2022/11/08 13:15:27;;;;;;;0.40;0.40;;;14.80;99.90;;;;;;5089273;28;20136;-77
2022/11/08 13:18:05;;;;;;;0.30;0.30;;;14.70;99.90;;;;;;5058647;28;20044;-78
2022/11/08 13:20:43;;;;;;;0.20;0.20;;;14.80;99.90;;;;;;5053198;28;20044;-77
2022/11/08 13:23:28;;;;;;;0.20;0.20;;;15.00;99.90;;;;;;5048380;28;20048;-78
2022/11/08 13:26:09;;;;;;;0.40;0.40;;;15.00;99.90;;;;;;5055035;28;21595;-78
2022/11/08 13:28:36;;;;;;;0.88;0.85;;;15.10;99.90;;;;;;5054449;28;20040;-79
2022/11/08 13:31:35;;;;;;;0.30;0.30;;;15.10;99.90;;;;;;5053657;28;20048;-80